createdAt,value
2022-08-04T00:03:17.546Z,24.07
2022-08-04T00:08:23.421Z,24.21
2022-08-04T00:13:26.417Z,24.23
2022-08-04T00:18:29.218Z,24.16
2022-08-04T00:23:28.562Z,24.02
2022-08-04T00:28:49.473Z,24.02
2022-08-04T00:33:49.715Z,24.10
2022-08-04T00:38:48.841Z,24.08
2022-08-04T00:43:59.337Z,24.04
2022-08-04T00:49:42.016Z,24.05
2022-08-04T00:55:04.200Z,23.94
2022-08-04T01:00:10.919Z,23.88
2022-08-04T01:05:21.505Z,23.95
2022-08-04T01:10:28.470Z,23.96
2022-08-04T01:15:53.981Z,23.96
2022-08-04T01:21:11.399Z,23.98
2022-08-04T01:26:57.944Z,23.89
2022-08-04T01:32:02.853Z,23.94
2022-08-04T01:37:08.787Z,23.96
2022-08-04T01:42:09.625Z,23.93
2022-08-04T01:47:11.048Z,23.93
2022-08-04T01:52:11.538Z,23.95
2022-08-04T01:57:38.371Z,23.88
2022-08-04T02:02:31.246Z,23.87
2022-08-04T02:07:51.490Z,23.82
2022-08-04T02:13:07.078Z,23.83
2022-08-04T02:18:13.733Z,23.86
2022-08-04T02:23:16.464Z,23.75
2022-08-04T02:28:24.129Z,23.86
2022-08-04T02:33:29.998Z,23.93
2022-08-04T02:38:41.170Z,23.91
2022-08-04T02:43:51.734Z,24.00
2022-08-04T02:48:54.122Z,23.99
2022-08-04T02:53:56.294Z,24.00
2022-08-04T02:58:58.032Z,23.97
2022-08-04T03:04:24.848Z,23.93
2022-08-04T03:10:04.099Z,23.84
2022-08-04T03:15:30.552Z,23.66
2022-08-04T03:21:07.197Z,23.32
2022-08-04T03:26:49.472Z,23.12
2022-08-04T03:32:17.994Z,22.96
2022-08-04T03:37:45.773Z,22.91
2022-08-04T03:43:58.000Z,22.77
2022-08-04T03:49:04.583Z,22.53
2022-08-04T03:54:37.862Z,22.40
2022-08-04T03:59:52.124Z,22.47
2022-08-04T04:05:09.157Z,22.58
2022-08-04T04:10:31.306Z,22.67
2022-08-04T04:15:50.216Z,22.75
2022-08-04T04:21:21.532Z,22.81
2022-08-04T04:26:39.076Z,22.88
2022-08-04T04:31:57.879Z,22.93
2022-08-04T04:37:16.890Z,23.10
2022-08-04T04:42:30.090Z,23.11
2022-08-04T04:48:08.879Z,23.20
2022-08-04T04:53:04.002Z,23.25
2022-08-04T04:58:03.095Z,23.49
2022-08-04T05:03:23.946Z,23.75
2022-08-04T05:08:47.440Z,24.07
2022-08-04T05:14:34.477Z,24.27
2022-08-04T05:19:22.410Z,24.46
2022-08-04T05:24:23.483Z,24.61
2022-08-04T05:29:31.802Z,25.00
2022-08-04T05:34:36.871Z,25.51
2022-08-04T05:39:40.135Z,25.86
2022-08-04T05:44:39.698Z,26.26
2022-08-04T05:49:41.197Z,26.59
2022-08-04T05:54:41.466Z,26.74
2022-08-04T05:59:42.890Z,26.90
2022-08-04T06:04:44.926Z,26.94
2022-08-04T06:09:43.338Z,27.36
2022-08-04T06:14:44.443Z,27.37
2022-08-04T06:19:59.423Z,27.55
2022-08-04T06:25:04.020Z,27.64
2022-08-04T06:30:07.122Z,28.12
2022-08-04T06:35:08.988Z,28.48
2022-08-04T06:40:31.812Z,29.13
2022-08-04T06:45:30.627Z,29.94
2022-08-04T06:51:25.681Z,30.04
2022-08-04T06:55:50.273Z,30.35
2022-08-04T07:00:49.729Z,30.08
2022-08-04T07:05:50.223Z,30.36
2022-08-04T07:10:48.867Z,31.18
2022-08-04T07:15:48.774Z,31.56
2022-08-04T07:20:49.346Z,32.11
2022-08-04T07:26:00.014Z,32.41
2022-08-04T07:31:34.326Z,32.94
2022-08-04T07:36:41.953Z,33.85
2022-08-04T07:41:49.614Z,33.77
2022-08-04T07:46:47.808Z,34.49
2022-08-04T07:51:47.754Z,35.22
2022-08-04T07:56:49.056Z,35.44
2022-08-04T08:01:47.921Z,35.27
2022-08-04T08:06:47.552Z,36.00
2022-08-04T08:12:37.069Z,36.41
2022-08-04T08:17:06.799Z,36.35
2022-08-04T08:22:07.005Z,36.66
2022-08-04T08:27:06.010Z,36.62
2022-08-04T08:32:09.108Z,36.85
2022-08-04T08:37:15.657Z,36.59
2022-08-04T08:42:41.683Z,37.22
2022-08-04T08:48:05.560Z,37.16
2022-08-04T08:53:23.945Z,37.48
2022-08-04T08:58:43.151Z,37.97
2022-08-04T09:04:28.830Z,38.42
2022-08-04T09:10:14.486Z,37.96
2022-08-04T09:15:18.252Z,37.98
2022-08-04T09:20:24.080Z,38.35
2022-08-04T09:25:26.082Z,38.90
2022-08-04T09:30:34.061Z,39.29
2022-08-04T09:35:41.569Z,39.57
2022-08-04T09:40:55.339Z,39.42
2022-08-04T09:46:03.647Z,39.19
2022-08-04T09:51:08.974Z,39.99
2022-08-04T09:56:15.833Z,40.11
2022-08-04T10:01:23.358Z,39.68
2022-08-04T10:06:49.247Z,40.47
2022-08-04T10:12:00.178Z,40.07
2022-08-04T10:17:17.504Z,39.99
2022-08-04T10:22:29.617Z,39.99
2022-08-04T10:27:34.295Z,39.91
2022-08-04T10:32:43.102Z,39.77
2022-08-04T10:37:56.528Z,39.94
2022-08-04T10:43:05.027Z,40.85
2022-08-04T10:48:18.558Z,40.19
2022-08-04T10:53:36.005Z,41.05
2022-08-04T10:58:47.510Z,40.74
2022-08-04T11:03:53.001Z,41.03
2022-08-04T11:08:55.168Z,41.08
2022-08-04T11:14:01.786Z,40.91
2022-08-04T11:19:12.675Z,41.44
2022-08-04T11:24:17.856Z,40.38
2022-08-04T11:29:25.817Z,40.72
2022-08-04T11:34:27.509Z,40.85
2022-08-04T11:39:30.977Z,38.99
2022-08-04T11:44:38.780Z,40.51
2022-08-04T11:49:57.360Z,41.11
2022-08-04T11:54:58.301Z,41.21
2022-08-04T11:59:59.506Z,40.57
2022-08-04T12:05:09.392Z,39.34
2022-08-04T12:10:41.139Z,38.29
2022-08-04T12:15:51.286Z,36.61
2022-08-04T12:20:57.001Z,36.75
2022-08-04T12:26:04.382Z,36.41
2022-08-04T12:31:11.575Z,36.70
2022-08-04T12:36:21.384Z,37.67
2022-08-04T12:41:25.186Z,37.04
2022-08-04T12:46:27.985Z,38.08
2022-08-04T12:51:31.202Z,39.36
2022-08-04T12:56:48.247Z,39.54
2022-08-04T13:02:11.004Z,38.95
2022-08-04T13:07:14.033Z,37.45
2022-08-04T13:12:14.745Z,36.89
2022-08-04T13:17:13.121Z,36.57
2022-08-04T13:22:17.048Z,36.22
2022-08-04T13:27:19.113Z,37.47
2022-08-04T13:32:20.479Z,37.02
2022-08-04T13:37:23.169Z,36.23
2022-08-04T13:42:22.081Z,35.99
2022-08-04T13:47:22.357Z,36.41
2022-08-04T13:52:27.162Z,36.31
2022-08-04T13:57:31.393Z,36.45
2022-08-04T14:02:35.534Z,36.68
2022-08-04T14:07:46.509Z,36.63
2022-08-04T14:12:47.783Z,36.88
2022-08-04T14:17:45.926Z,36.91
2022-08-04T14:22:45.450Z,37.00
2022-08-04T14:27:46.118Z,36.58
2022-08-04T14:32:57.728Z,36.43
2022-08-04T14:37:59.103Z,36.40
2022-08-04T14:43:05.237Z,36.31
2022-08-04T14:48:09.246Z,36.07
2022-08-04T14:53:10.946Z,36.09
2022-08-04T14:58:36.510Z,36.07
2022-08-04T15:03:36.543Z,36.09
2022-08-04T15:08:51.885Z,36.39
2022-08-04T15:13:50.307Z,35.91
2022-08-04T15:18:49.426Z,35.45
2022-08-04T15:23:48.014Z,35.50
2022-08-04T15:28:51.516Z,35.33
2022-08-04T15:33:50.861Z,34.82
2022-08-04T15:38:58.742Z,34.59
2022-08-04T15:44:19.182Z,34.67
2022-08-04T15:49:21.617Z,34.45
2022-08-04T15:54:30.772Z,34.46
2022-08-04T16:00:01.362Z,34.21
2022-08-04T16:05:34.511Z,34.09
2022-08-04T16:10:41.660Z,33.83
2022-08-04T16:15:43.634Z,33.80
2022-08-04T16:20:47.225Z,33.58
2022-08-04T16:25:52.064Z,33.64
2022-08-04T16:30:51.713Z,33.61
2022-08-04T16:35:52.183Z,33.51
2022-08-04T16:41:07.097Z,33.34
2022-08-04T16:46:12.704Z,33.21
2022-08-04T16:51:16.754Z,33.19
2022-08-04T16:56:18.849Z,33.17
2022-08-04T17:01:32.238Z,33.13
2022-08-04T17:06:36.215Z,32.95
2022-08-04T17:11:34.667Z,32.76
2022-08-04T17:16:35.190Z,32.59
2022-08-04T17:21:36.307Z,32.49
2022-08-04T17:26:40.317Z,32.39
2022-08-04T17:31:40.902Z,32.23
2022-08-04T17:36:40.413Z,32.13
2022-08-04T17:41:42.430Z,32.15
2022-08-04T17:46:49.786Z,31.96
2022-08-04T17:52:01.687Z,31.86
2022-08-04T17:57:15.472Z,31.60
2022-08-04T18:02:22.623Z,31.48
2022-08-04T18:08:35.246Z,31.44
2022-08-04T18:12:55.802Z,31.38
2022-08-04T18:18:22.216Z,31.34
2022-08-04T18:23:16.557Z,31.38
2022-08-04T18:28:18.346Z,31.29
2022-08-04T18:33:39.968Z,31.20
2022-08-04T18:43:58.204Z,31.06
2022-08-04T18:48:59.357Z,31.01
2022-08-04T18:53:58.843Z,30.96
2022-08-04T18:58:57.564Z,30.91
2022-08-04T19:03:59.842Z,30.95
2022-08-04T19:09:00.399Z,30.97
2022-08-04T19:13:58.993Z,30.89
2022-08-04T19:18:57.411Z,30.79
2022-08-04T19:24:28.421Z,30.61
2022-08-04T19:29:15.941Z,30.53
2022-08-04T19:34:14.158Z,30.38
2022-08-04T19:39:14.765Z,30.33
2022-08-04T19:44:14.277Z,30.31
2022-08-04T19:50:03.018Z,30.16
2022-08-04T19:54:32.332Z,30.16
2022-08-04T19:59:32.424Z,29.99
2022-08-04T20:09:53.388Z,29.91
2022-08-04T20:14:51.905Z,29.76
2022-08-04T20:19:53.133Z,29.87
2022-08-04T20:25:00.606Z,29.78
2022-08-04T20:30:15.815Z,29.63
2022-08-04T20:35:28.743Z,29.45
2022-08-04T20:40:28.761Z,29.30
2022-08-04T20:45:55.614Z,29.20
2022-08-04T20:50:47.178Z,29.16
2022-08-04T20:55:54.964Z,29.06
2022-08-04T21:00:55.060Z,28.97
2022-08-04T21:05:53.491Z,28.97
2022-08-04T21:10:52.977Z,28.94
2022-08-04T21:15:59.373Z,28.86
2022-08-04T21:20:57.674Z,28.70
2022-08-04T21:26:04.531Z,28.68
2022-08-04T21:31:11.243Z,28.71
2022-08-04T21:36:20.295Z,28.77
2022-08-04T21:41:24.649Z,28.60
2022-08-04T21:46:25.345Z,28.57
2022-08-04T21:52:00.219Z,28.62
2022-08-04T21:56:51.714Z,28.64
2022-08-04T22:01:54.654Z,28.45
2022-08-04T22:06:53.394Z,28.39
2022-08-04T22:11:52.886Z,28.45
2022-08-04T22:16:52.026Z,28.28
2022-08-04T22:21:52.560Z,28.19
2022-08-04T22:26:52.127Z,28.43
2022-08-04T22:31:56.121Z,28.37
2022-08-04T22:36:54.993Z,28.46
2022-08-04T22:42:04.019Z,28.17
2022-08-04T22:47:02.877Z,28.02
2022-08-04T22:52:02.871Z,27.93
2022-08-04T22:57:09.784Z,27.83
2022-08-04T23:02:08.194Z,27.74
2022-08-04T23:07:09.287Z,27.64
2022-08-04T23:12:24.462Z,27.67
2022-08-04T23:17:24.239Z,27.56
2022-08-04T23:22:42.265Z,27.23
2022-08-04T23:27:43.939Z,27.04
2022-08-04T23:32:46.509Z,26.90
2022-08-04T23:37:48.364Z,26.79
2022-08-04T23:42:56.986Z,26.62
2022-08-04T23:48:18.344Z,26.51
2022-08-04T23:53:18.666Z,26.48
2022-08-04T23:58:28.357Z,26.38
